LPHR/HOR METAR and TAF weather

Enter ICAO airport designator
Station Type Date Time Source
LPHR METAR 2020/02/24 08:00 UTC NOAA

LPHR 240800Z 31007KT 9999 SCT015 14/11 Q1031


Station Type Date Time Source
LPHR Decoded METAR 2020/02/24 08:00 UTC NOAA

Horta / Castelo Branco Acores , Portugal (LPHR) 38-31N 028-43W 41M
Feb 24, 2020 - 03:00 AM EST / 2020.02.24 0800 UTC
Wind: from the NW (310 degrees) at 8 MPH (7 KT):0
Visibility: greater than 7 mile(s):0
Sky conditions: partly cloudy
Temperature: 57 F (14 C)
Dew Point: 51 F (11 C)
Relative Humidity: 82%
Pressure (altimeter): 30.45 in. Hg (1031 hPa)
ob: LPHR 240800Z 31007KT 9999 SCT015 14/11 Q1031
cycle: 8

Station Type Date Time Source
LPHR TAF 2018/09/06 09:00 UTC NOAA

TAF LPHR 060800Z 0609/0618 12010KT 9999 SCT018 SCT040 PROB30
TEMPO 0609/0618 5000 SHRA BKN015 FEW018CB
BECMG 0610/0612 18010KT

Example: see airport list